sensor_id;sensor_type;location;lat;lon;timestamp;temperature;humidity
3923;DHT22;1976;51.694;6.256;2023-12-20T00:01:22;7.70;99.90
3923;DHT22;1976;51.694;6.256;2023-12-20T00:03:48;7.70;99.90
3923;DHT22;1976;51.694;6.256;2023-12-20T00:06:14;7.70;99.90
3923;DHT22;1976;51.694;6.256;2023-12-20T00:08:39;7.70;99.90
3923;DHT22;1976;51.694;6.256;2023-12-20T00:11:05;7.70;99.90
3923;DHT22;1976;51.694;6.256;2023-12-20T00:13:31;7.70;99.90
3923;DHT22;1976;51.694;6.256;2023-12-20T00:15:57;7.70;99.90
3923;DHT22;1976;51.694;6.256;2023-12-20T00:18:23;7.70;99.90
3923;DHT22;1976;51.694;6.256;2023-12-20T00:20:48;7.80;99.90
3923;DHT22;1976;51.694;6.256;2023-12-20T00:23:15;7.80;99.90
3923;DHT22;1976;51.694;6.256;2023-12-20T00:25:40;7.80;99.90
3923;DHT22;1976;51.694;6.256;2023-12-20T00:28:06;7.80;99.90
3923;DHT22;1976;51.694;6.256;2023-12-20T00:30:32;7.80;99.90
3923;DHT22;1976;51.694;6.256;2023-12-20T00:32:57;7.60;99.90
3923;DHT22;1976;51.694;6.256;2023-12-20T00:35:23;7.60;99.90
3923;DHT22;1976;51.694;6.256;2023-12-20T00:37:49;7.50;99.90
3923;DHT22;1976;51.694;6.256;2023-12-20T00:40:15;7.40;99.90
3923;DHT22;1976;51.694;6.256;2023-12-20T00:42:41;7.40;99.90
3923;DHT22;1976;51.694;6.256;2023-12-20T00:45:07;7.30;99.90
3923;DHT22;1976;51.694;6.256;2023-12-20T00:47:33;7.30;99.90
3923;DHT22;1976;51.694;6.256;2023-12-20T00:49:58;7.20;99.90
3923;DHT22;1976;51.694;6.256;2023-12-20T00:52:24;7.20;99.90
3923;DHT22;1976;51.694;6.256;2023-12-20T00:54:50;7.10;99.90
3923;DHT22;1976;51.694;6.256;2023-12-20T00:57:16;7.10;99.90
3923;DHT22;1976;51.694;6.256;2023-12-20T00:59:42;7.10;99.90
3923;DHT22;1976;51.694;6.256;2023-12-20T01:02:07;7.10;99.90
3923;DHT22;1976;51.694;6.256;2023-12-20T01:04:34;7.10;99.90
3923;DHT22;1976;51.694;6.256;2023-12-20T01:07:00;7.10;99.90
3923;DHT22;1976;51.694;6.256;2023-12-20T01:09:26;7.20;99.90
3923;DHT22;1976;51.694;6.256;2023-12-20T01:11:54;7.20;99.90
3923;DHT22;1976;51.694;6.256;2023-12-20T01:14:20;7.10;99.90
3923;DHT22;1976;51.694;6.256;2023-12-20T01:16:46;7.10;99.90
3923;DHT22;1976;51.694;6.256;2023-12-20T01:19:12;7.00;99.90
3923;DHT22;1976;51.694;6.256;2023-12-20T01:21:39;6.90;99.90
3923;DHT22;1976;51.694;6.256;2023-12-20T01:24:05;6.90;99.90
3923;DHT22;1976;51.694;6.256;2023-12-20T01:26:31;6.90;99.90
3923;DHT22;1976;51.694;6.256;2023-12-20T01:28:57;6.80;99.90
3923;DHT22;1976;51.694;6.256;2023-12-20T01:31:23;6.80;99.90
3923;DHT22;1976;51.694;6.256;2023-12-20T01:33:48;6.80;99.90
3923;DHT22;1976;51.694;6.256;2023-12-20T01:36:14;6.70;99.90
3923;DHT22;1976;51.694;6.256;2023-12-20T01:38:40;6.70;99.90
3923;DHT22;1976;51.694;6.256;2023-12-20T01:41:06;6.60;99.90
3923;DHT22;1976;51.694;6.256;2023-12-20T01:43:32;6.60;99.90
3923;DHT22;1976;51.694;6.256;2023-12-20T01:45:58;6.50;99.90
3923;DHT22;1976;51.694;6.256;2023-12-20T01:48:25;6.50;99.90
3923;DHT22;1976;51.694;6.256;2023-12-20T01:50:51;6.40;99.90
3923;DHT22;1976;51.694;6.256;2023-12-20T01:53:18;6.40;99.90
3923;DHT22;1976;51.694;6.256;2023-12-20T01:55:44;6.40;99.90
3923;DHT22;1976;51.694;6.256;2023-12-20T01:58:11;6.30;99.90
3923;DHT22;1976;51.694;6.256;2023-12-20T02:00:38;6.30;99.90
3923;DHT22;1976;51.694;6.256;2023-12-20T02:03:04;6.30;99.90
3923;DHT22;1976;51.694;6.256;2023-12-20T02:05:31;6.30;99.90
3923;DHT22;1976;51.694;6.256;2023-12-20T02:07:57;6.30;99.90
3923;DHT22;1976;51.694;6.256;2023-12-20T02:10:23;6.30;99.90
3923;DHT22;1976;51.694;6.256;2023-12-20T02:12:49;6.20;99.90
3923;DHT22;1976;51.694;6.256;2023-12-20T02:15:15;6.30;99.90
3923;DHT22;1976;51.694;6.256;2023-12-20T02:17:41;6.40;99.90
3923;DHT22;1976;51.694;6.256;2023-12-20T02:20:07;6.30;99.90
3923;DHT22;1976;51.694;6.256;2023-12-20T02:22:32;6.30;99.90
3923;DHT22;1976;51.694;6.256;2023-12-20T02:24:58;6.40;99.90
3923;DHT22;1976;51.694;6.256;2023-12-20T02:27:24;6.40;99.90
3923;DHT22;1976;51.694;6.256;2023-12-20T02:29:50;6.30;99.90
3923;DHT22;1976;51.694;6.256;2023-12-20T02:32:17;6.40;99.90
3923;DHT22;1976;51.694;6.256;2023-12-20T02:34:44;6.40;99.90
3923;DHT22;1976;51.694;6.256;2023-12-20T02:37:09;6.30;99.90
3923;DHT22;1976;51.694;6.256;2023-12-20T02:42:01;6.30;99.90
3923;DHT22;1976;51.694;6.256;2023-12-20T02:44:27;6.30;99.90
3923;DHT22;1976;51.694;6.256;2023-12-20T02:46:53;6.40;99.90
3923;DHT22;1976;51.694;6.256;2023-12-20T02:49:18;6.30;99.90
3923;DHT22;1976;51.694;6.256;2023-12-20T02:51:44;6.30;99.90
3923;DHT22;1976;51.694;6.256;2023-12-20T02:54:10;6.40;99.90
3923;DHT22;1976;51.694;6.256;2023-12-20T02:56:35;6.40;99.90
3923;DHT22;1976;51.694;6.256;2023-12-20T02:59:01;6.40;99.90
3923;DHT22;1976;51.694;6.256;2023-12-20T03:01:28;6.40;99.90
3923;DHT22;1976;51.694;6.256;2023-12-20T03:03:54;6.40;99.90
3923;DHT22;1976;51.694;6.256;2023-12-20T03:06:19;6.40;99.90
3923;DHT22;1976;51.694;6.256;2023-12-20T03:08:45;6.40;99.90
3923;DHT22;1976;51.694;6.256;2023-12-20T03:11:11;6.30;99.90
3923;DHT22;1976;51.694;6.256;2023-12-20T03:13:37;6.30;99.90
3923;DHT22;1976;51.694;6.256;2023-12-20T03:16:12;6.30;99.90
3923;DHT22;1976;51.694;6.256;2023-12-20T03:18:38;6.30;99.90
3923;DHT22;1976;51.694;6.256;2023-12-20T03:21:04;6.20;99.90
3923;DHT22;1976;51.694;6.256;2023-12-20T03:23:30;6.20;99.90
3923;DHT22;1976;51.694;6.256;2023-12-20T03:25:58;6.20;99.90
3923;DHT22;1976;51.694;6.256;2023-12-20T03:28:23;6.20;99.90
3923;DHT22;1976;51.694;6.256;2023-12-20T03:30:49;6.10;99.90
3923;DHT22;1976;51.694;6.256;2023-12-20T03:33:15;6.10;99.90
3923;DHT22;1976;51.694;6.256;2023-12-20T03:35:41;6.10;99.90
3923;DHT22;1976;51.694;6.256;2023-12-20T03:38:06;6.20;99.90
3923;DHT22;1976;51.694;6.256;2023-12-20T03:40:32;6.20;99.90
3923;DHT22;1976;51.694;6.256;2023-12-20T03:42:58;6.10;99.90
3923;DHT22;1976;51.694;6.256;2023-12-20T03:45:23;6.10;99.90
3923;DHT22;1976;51.694;6.256;2023-12-20T03:47:49;6.30;99.90
3923;DHT22;1976;51.694;6.256;2023-12-20T03:50:15;6.30;99.90
3923;DHT22;1976;51.694;6.256;2023-12-20T03:52:41;6.30;99.90
3923;DHT22;1976;51.694;6.256;2023-12-20T03:55:06;6.30;99.90
3923;DHT22;1976;51.694;6.256;2023-12-20T03:57:32;6.30;99.90
3923;DHT22;1976;51.694;6.256;2023-12-20T03:59:58;6.20;99.90
3923;DHT22;1976;51.694;6.256;2023-12-20T04:02:23;6.20;99.90
3923;DHT22;1976;51.694;6.256;2023-12-20T04:04:49;6.20;99.90
3923;DHT22;1976;51.694;6.256;2023-12-20T04:07:14;6.20;99.90
3923;DHT22;1976;51.694;6.256;2023-12-20T04:09:41;6.30;99.90
3923;DHT22;1976;51.694;6.256;2023-12-20T04:12:06;6.30;99.90
3923;DHT22;1976;51.694;6.256;2023-12-20T04:14:32;6.30;99.90
3923;DHT22;1976;51.694;6.256;2023-12-20T04:16:58;6.30;99.90
3923;DHT22;1976;51.694;6.256;2023-12-20T04:19:23;6.40;99.90
3923;DHT22;1976;51.694;6.256;2023-12-20T04:21:49;6.40;99.90
3923;DHT22;1976;51.694;6.256;2023-12-20T04:24:15;6.30;99.90
3923;DHT22;1976;51.694;6.256;2023-12-20T04:26:40;6.30;99.90
3923;DHT22;1976;51.694;6.256;2023-12-20T04:29:06;6.30;99.90
3923;DHT22;1976;51.694;6.256;2023-12-20T04:31:31;6.40;99.90
3923;DHT22;1976;51.694;6.256;2023-12-20T04:33:57;6.40;99.90
3923;DHT22;1976;51.694;6.256;2023-12-20T04:36:23;6.40;99.90
3923;DHT22;1976;51.694;6.256;2023-12-20T04:38:48;6.40;99.90
3923;DHT22;1976;51.694;6.256;2023-12-20T04:41:14;6.50;99.90
3923;DHT22;1976;51.694;6.256;2023-12-20T04:43:44;6.50;99.90
3923;DHT22;1976;51.694;6.256;2023-12-20T04:46:09;6.40;99.90
3923;DHT22;1976;51.694;6.256;2023-12-20T04:48:35;6.50;99.90
3923;DHT22;1976;51.694;6.256;2023-12-20T04:51:00;6.60;99.90
3923;DHT22;1976;51.694;6.256;2023-12-20T04:53:26;6.60;99.90
3923;DHT22;1976;51.694;6.256;2023-12-20T04:55:52;6.60;99.90
3923;DHT22;1976;51.694;6.256;2023-12-20T04:58:18;6.60;99.90
3923;DHT22;1976;51.694;6.256;2023-12-20T05:00:44;6.60;99.90
3923;DHT22;1976;51.694;6.256;2023-12-20T05:03:10;6.60;99.90
3923;DHT22;1976;51.694;6.256;2023-12-20T05:05:36;6.60;99.90
3923;DHT22;1976;51.694;6.256;2023-12-20T05:08:01;6.60;99.90
3923;DHT22;1976;51.694;6.256;2023-12-20T05:10:27;6.60;99.90
3923;DHT22;1976;51.694;6.256;2023-12-20T05:12:53;6.70;99.90
3923;DHT22;1976;51.694;6.256;2023-12-20T05:15:19;6.60;99.90
3923;DHT22;1976;51.694;6.256;2023-12-20T05:17:44;6.70;99.90
3923;DHT22;1976;51.694;6.256;2023-12-20T05:20:10;6.60;99.90
3923;DHT22;1976;51.694;6.256;2023-12-20T05:22:36;6.70;99.90
3923;DHT22;1976;51.694;6.256;2023-12-20T05:25:01;6.80;99.90
3923;DHT22;1976;51.694;6.256;2023-12-20T05:27:27;6.80;99.90
3923;DHT22;1976;51.694;6.256;2023-12-20T05:29:52;6.90;99.90
3923;DHT22;1976;51.694;6.256;2023-12-20T05:32:18;6.90;99.90
3923;DHT22;1976;51.694;6.256;2023-12-20T05:34:44;6.80;99.90
3923;DHT22;1976;51.694;6.256;2023-12-20T05:37:09;6.70;99.90
3923;DHT22;1976;51.694;6.256;2023-12-20T05:39:35;6.70;99.90
3923;DHT22;1976;51.694;6.256;2023-12-20T05:42:00;6.60;99.90
3923;DHT22;1976;51.694;6.256;2023-12-20T05:44:26;6.70;99.90
3923;DHT22;1976;51.694;6.256;2023-12-20T05:46:51;6.80;99.90
3923;DHT22;1976;51.694;6.256;2023-12-20T05:49:17;6.90;99.90
3923;DHT22;1976;51.694;6.256;2023-12-20T05:51:43;6.90;99.90
3923;DHT22;1976;51.694;6.256;2023-12-20T05:54:09;6.90;99.90
3923;DHT22;1976;51.694;6.256;2023-12-20T05:56:34;6.90;99.90
3923;DHT22;1976;51.694;6.256;2023-12-20T05:59:00;6.90;99.90
3923;DHT22;1976;51.694;6.256;2023-12-20T06:01:26;6.90;99.90
3923;DHT22;1976;51.694;6.256;2023-12-20T06:03:51;7.00;99.90
3923;DHT22;1976;51.694;6.256;2023-12-20T06:06:17;7.00;99.90
3923;DHT22;1976;51.694;6.256;2023-12-20T06:08:43;7.00;99.90
3923;DHT22;1976;51.694;6.256;2023-12-20T06:11:09;7.10;99.90
3923;DHT22;1976;51.694;6.256;2023-12-20T06:13:34;7.10;99.90
3923;DHT22;1976;51.694;6.256;2023-12-20T06:16:01;7.10;99.90
3923;DHT22;1976;51.694;6.256;2023-12-20T06:18:26;7.10;99.90
3923;DHT22;1976;51.694;6.256;2023-12-20T06:20:52;7.10;99.90
3923;DHT22;1976;51.694;6.256;2023-12-20T06:23:17;7.20;99.90
3923;DHT22;1976;51.694;6.256;2023-12-20T06:25:44;7.10;99.90
3923;DHT22;1976;51.694;6.256;2023-12-20T06:28:09;7.00;99.90
3923;DHT22;1976;51.694;6.256;2023-12-20T06:30:35;7.10;99.90
3923;DHT22;1976;51.694;6.256;2023-12-20T06:33:01;7.10;99.90
3923;DHT22;1976;51.694;6.256;2023-12-20T06:35:27;7.10;99.90
3923;DHT22;1976;51.694;6.256;2023-12-20T06:37:52;7.10;99.90
3923;DHT22;1976;51.694;6.256;2023-12-20T06:40:24;7.10;99.90
3923;DHT22;1976;51.694;6.256;2023-12-20T06:42:50;7.10;99.90
3923;DHT22;1976;51.694;6.256;2023-12-20T06:45:16;7.00;99.90
3923;DHT22;1976;51.694;6.256;2023-12-20T06:50:07;7.00;99.90
3923;DHT22;1976;51.694;6.256;2023-12-20T06:52:34;6.90;99.90
3923;DHT22;1976;51.694;6.256;2023-12-20T06:55:00;7.00;99.90
3923;DHT22;1976;51.694;6.256;2023-12-20T06:57:26;7.00;99.90
3923;DHT22;1976;51.694;6.256;2023-12-20T06:59:52;7.10;99.90
3923;DHT22;1976;51.694;6.256;2023-12-20T07:02:17;7.00;99.90
3923;DHT22;1976;51.694;6.256;2023-12-20T07:04:43;7.00;99.90
3923;DHT22;1976;51.694;6.256;2023-12-20T07:07:08;7.10;99.90
3923;DHT22;1976;51.694;6.256;2023-12-20T07:09:34;7.20;99.90
3923;DHT22;1976;51.694;6.256;2023-12-20T07:12:00;7.10;99.90
3923;DHT22;1976;51.694;6.256;2023-12-20T07:14:25;7.10;99.90
3923;DHT22;1976;51.694;6.256;2023-12-20T07:16:51;7.00;99.90
3923;DHT22;1976;51.694;6.256;2023-12-20T07:19:17;7.00;99.90
3923;DHT22;1976;51.694;6.256;2023-12-20T07:21:43;7.00;99.90
3923;DHT22;1976;51.694;6.256;2023-12-20T07:24:08;7.00;99.90
3923;DHT22;1976;51.694;6.256;2023-12-20T07:26:35;7.00;99.90
3923;DHT22;1976;51.694;6.256;2023-12-20T07:29:00;7.00;99.90
3923;DHT22;1976;51.694;6.256;2023-12-20T07:31:26;7.10;99.90
3923;DHT22;1976;51.694;6.256;2023-12-20T07:33:52;7.20;99.90
3923;DHT22;1976;51.694;6.256;2023-12-20T07:36:19;7.20;99.90
3923;DHT22;1976;51.694;6.256;2023-12-20T07:38:45;7.10;99.90
3923;DHT22;1976;51.694;6.256;2023-12-20T07:41:11;7.10;99.90
3923;DHT22;1976;51.694;6.256;2023-12-20T07:43:36;7.10;99.90
3923;DHT22;1976;51.694;6.256;2023-12-20T07:46:06;7.10;99.90
3923;DHT22;1976;51.694;6.256;2023-12-20T07:48:33;7.10;99.90
3923;DHT22;1976;51.694;6.256;2023-12-20T07:50:59;7.10;99.90
3923;DHT22;1976;51.694;6.256;2023-12-20T07:53:25;7.20;99.90
3923;DHT22;1976;51.694;6.256;2023-12-20T07:55:51;7.20;99.90
3923;DHT22;1976;51.694;6.256;2023-12-20T07:58:18;7.20;99.90
3923;DHT22;1976;51.694;6.256;2023-12-20T08:03:09;7.30;99.90
3923;DHT22;1976;51.694;6.256;2023-12-20T08:05:35;7.30;99.90
3923;DHT22;1976;51.694;6.256;2023-12-20T08:08:01;7.40;99.90
3923;DHT22;1976;51.694;6.256;2023-12-20T08:10:27;7.40;99.90
3923;DHT22;1976;51.694;6.256;2023-12-20T08:12:55;7.30;99.90
3923;DHT22;1976;51.694;6.256;2023-12-20T08:15:20;7.40;99.90
3923;DHT22;1976;51.694;6.256;2023-12-20T08:17:46;7.30;99.90
3923;DHT22;1976;51.694;6.256;2023-12-20T08:20:12;7.30;99.90
3923;DHT22;1976;51.694;6.256;2023-12-20T08:22:38;7.40;99.90
3923;DHT22;1976;51.694;6.256;2023-12-20T08:25:04;7.30;99.90
3923;DHT22;1976;51.694;6.256;2023-12-20T08:27:29;7.40;99.90
3923;DHT22;1976;51.694;6.256;2023-12-20T08:29:57;7.40;99.90
3923;DHT22;1976;51.694;6.256;2023-12-20T08:32:25;7.50;99.90
3923;DHT22;1976;51.694;6.256;2023-12-20T08:34:51;7.50;99.90
3923;DHT22;1976;51.694;6.256;2023-12-20T08:37:18;7.50;99.90
3923;DHT22;1976;51.694;6.256;2023-12-20T08:39:43;7.50;99.90
3923;DHT22;1976;51.694;6.256;2023-12-20T08:42:09;7.50;99.90
3923;DHT22;1976;51.694;6.256;2023-12-20T08:44:35;7.60;99.90
3923;DHT22;1976;51.694;6.256;2023-12-20T08:47:01;7.60;99.90
3923;DHT22;1976;51.694;6.256;2023-12-20T08:49:27;7.60;99.90
3923;DHT22;1976;51.694;6.256;2023-12-20T08:51:53;7.60;99.90
3923;DHT22;1976;51.694;6.256;2023-12-20T08:54:19;7.50;99.90
3923;DHT22;1976;51.694;6.256;2023-12-20T08:56:45;7.50;99.90
3923;DHT22;1976;51.694;6.256;2023-12-20T08:59:11;7.60;99.90
3923;DHT22;1976;51.694;6.256;2023-12-20T09:01:37;7.60;99.90
3923;DHT22;1976;51.694;6.256;2023-12-20T09:04:03;7.60;99.90
3923;DHT22;1976;51.694;6.256;2023-12-20T09:06:28;7.70;99.90
3923;DHT22;1976;51.694;6.256;2023-12-20T09:08:54;7.70;99.90
3923;DHT22;1976;51.694;6.256;2023-12-20T09:11:20;7.70;99.90
3923;DHT22;1976;51.694;6.256;2023-12-20T09:13:45;7.70;99.90
3923;DHT22;1976;51.694;6.256;2023-12-20T09:18:38;7.70;99.90
3923;DHT22;1976;51.694;6.256;2023-12-20T09:21:04;7.70;99.90
3923;DHT22;1976;51.694;6.256;2023-12-20T09:23:30;7.80;99.90
3923;DHT22;1976;51.694;6.256;2023-12-20T09:25:55;7.80;99.90
3923;DHT22;1976;51.694;6.256;2023-12-20T09:28:21;7.80;99.90
3923;DHT22;1976;51.694;6.256;2023-12-20T09:30:47;7.70;99.90
3923;DHT22;1976;51.694;6.256;2023-12-20T09:33:14;7.80;99.90
3923;DHT22;1976;51.694;6.256;2023-12-20T09:35:39;7.70;99.90
3923;DHT22;1976;51.694;6.256;2023-12-20T09:38:05;7.70;99.90
3923;DHT22;1976;51.694;6.256;2023-12-20T09:40:32;7.80;99.90
3923;DHT22;1976;51.694;6.256;2023-12-20T09:43:12;7.80;99.90
3923;DHT22;1976;51.694;6.256;2023-12-20T09:45:39;7.70;99.90
3923;DHT22;1976;51.694;6.256;2023-12-20T09:48:06;7.80;99.90
3923;DHT22;1976;51.694;6.256;2023-12-20T09:50:32;7.80;99.90
3923;DHT22;1976;51.694;6.256;2023-12-20T09:53:00;7.80;99.90
3923;DHT22;1976;51.694;6.256;2023-12-20T09:55:28;7.70;99.90
3923;DHT22;1976;51.694;6.256;2023-12-20T09:57:55;7.80;99.90
3923;DHT22;1976;51.694;6.256;2023-12-20T10:00:20;7.80;99.90
3923;DHT22;1976;51.694;6.256;2023-12-20T10:03:06;7.60;99.90
3923;DHT22;1976;51.694;6.256;2023-12-20T10:05:34;7.50;99.90
3923;DHT22;1976;51.694;6.256;2023-12-20T10:08:00;7.40;99.90
3923;DHT22;1976;51.694;6.256;2023-12-20T10:10:27;7.30;99.90
3923;DHT22;1976;51.694;6.256;2023-12-20T10:13:07;7.30;99.90
3923;DHT22;1976;51.694;6.256;2023-12-20T10:15:34;7.30;99.90
3923;DHT22;1976;51.694;6.256;2023-12-20T10:18:01;7.30;99.90
3923;DHT22;1976;51.694;6.256;2023-12-20T10:20:27;7.40;99.90
3923;DHT22;1976;51.694;6.256;2023-12-20T10:22:57;7.30;99.90
3923;DHT22;1976;51.694;6.256;2023-12-20T10:25:24;7.30;99.90
3923;DHT22;1976;51.694;6.256;2023-12-20T10:30:33;7.40;99.90
3923;DHT22;1976;51.694;6.256;2023-12-20T10:32:59;7.40;99.90
3923;DHT22;1976;51.694;6.256;2023-12-20T10:35:24;7.40;99.90
3923;DHT22;1976;51.694;6.256;2023-12-20T10:37:52;7.30;99.90
3923;DHT22;1976;51.694;6.256;2023-12-20T10:40:21;7.30;99.90
3923;DHT22;1976;51.694;6.256;2023-12-20T10:42:47;7.30;99.90
3923;DHT22;1976;51.694;6.256;2023-12-20T10:45:12;7.40;99.90
3923;DHT22;1976;51.694;6.256;2023-12-20T10:47:39;7.30;99.90
3923;DHT22;1976;51.694;6.256;2023-12-20T10:50:06;7.40;99.90
3923;DHT22;1976;51.694;6.256;2023-12-20T10:55:00;7.40;99.90
3923;DHT22;1976;51.694;6.256;2023-12-20T10:57:27;7.30;99.90
3923;DHT22;1976;51.694;6.256;2023-12-20T10:59:54;7.30;99.90
3923;DHT22;1976;51.694;6.256;2023-12-20T11:02:21;7.30;99.90
3923;DHT22;1976;51.694;6.256;2023-12-20T11:04:55;7.30;99.90
3923;DHT22;1976;51.694;6.256;2023-12-20T11:07:28;7.30;99.90
3923;DHT22;1976;51.694;6.256;2023-12-20T11:10:14;7.40;99.90
3923;DHT22;1976;51.694;6.256;2023-12-20T11:18:02;7.40;99.90
3923;DHT22;1976;51.694;6.256;2023-12-20T11:20:36;7.40;99.90
3923;DHT22;1976;51.694;6.256;2023-12-20T11:23:02;7.40;99.90
3923;DHT22;1976;51.694;6.256;2023-12-20T11:25:28;7.40;99.90
3923;DHT22;1976;51.694;6.256;2023-12-20T11:28:12;7.40;99.90
3923;DHT22;1976;51.694;6.256;2023-12-20T11:30:58;7.50;99.90
3923;DHT22;1976;51.694;6.256;2023-12-20T11:33:30;7.60;99.90
3923;DHT22;1976;51.694;6.256;2023-12-20T11:35:58;7.60;99.90
3923;DHT22;1976;51.694;6.256;2023-12-20T11:38:25;7.70;99.90
3923;DHT22;1976;51.694;6.256;2023-12-20T11:40:53;7.60;99.90
3923;DHT22;1976;51.694;6.256;2023-12-20T11:43:35;7.50;99.90
3923;DHT22;1976;51.694;6.256;2023-12-20T11:46:08;7.40;99.90
3923;DHT22;1976;51.694;6.256;2023-12-20T11:48:36;7.50;99.90
3923;DHT22;1976;51.694;6.256;2023-12-20T11:51:08;7.60;99.90
3923;DHT22;1976;51.694;6.256;2023-12-20T11:53:34;7.70;99.90
3923;DHT22;1976;51.694;6.256;2023-12-20T11:56:00;7.80;99.90
3923;DHT22;1976;51.694;6.256;2023-12-20T11:58:28;7.80;99.90
3923;DHT22;1976;51.694;6.256;2023-12-20T12:00:55;7.90;99.90
3923;DHT22;1976;51.694;6.256;2023-12-20T12:03:21;7.90;99.90
3923;DHT22;1976;51.694;6.256;2023-12-20T12:05:50;8.00;99.90
3923;DHT22;1976;51.694;6.256;2023-12-20T12:08:17;8.20;99.90
3923;DHT22;1976;51.694;6.256;2023-12-20T12:10:43;8.30;99.90
3923;DHT22;1976;51.694;6.256;2023-12-20T12:13:09;8.60;99.90
3923;DHT22;1976;51.694;6.256;2023-12-20T12:15:36;8.70;99.90
3923;DHT22;1976;51.694;6.256;2023-12-20T12:18:02;8.80;99.90
3923;DHT22;1976;51.694;6.256;2023-12-20T12:20:28;8.80;99.90
3923;DHT22;1976;51.694;6.256;2023-12-20T12:23:23;8.80;99.90
3923;DHT22;1976;51.694;6.256;2023-12-20T12:25:49;8.80;99.90
3923;DHT22;1976;51.694;6.256;2023-12-20T12:28:16;8.70;99.90
3923;DHT22;1976;51.694;6.256;2023-12-20T12:30:42;8.70;99.90
3923;DHT22;1976;51.694;6.256;2023-12-20T12:33:07;8.60;99.90
3923;DHT22;1976;51.694;6.256;2023-12-20T12:35:34;8.50;99.90
3923;DHT22;1976;51.694;6.256;2023-12-20T12:38:00;8.50;99.90
3923;DHT22;1976;51.694;6.256;2023-12-20T12:40:26;8.50;99.90
3923;DHT22;1976;51.694;6.256;2023-12-20T12:45:18;8.40;99.90
3923;DHT22;1976;51.694;6.256;2023-12-20T12:47:45;8.40;99.90
3923;DHT22;1976;51.694;6.256;2023-12-20T12:50:11;8.40;99.90
3923;DHT22;1976;51.694;6.256;2023-12-20T12:52:36;8.40;99.90
3923;DHT22;1976;51.694;6.256;2023-12-20T12:55:03;8.50;99.90
3923;DHT22;1976;51.694;6.256;2023-12-20T12:57:30;8.50;99.90
3923;DHT22;1976;51.694;6.256;2023-12-20T12:59:55;8.40;99.90
3923;DHT22;1976;51.694;6.256;2023-12-20T13:02:21;8.40;99.90
3923;DHT22;1976;51.694;6.256;2023-12-20T13:04:47;8.20;99.90
3923;DHT22;1976;51.694;6.256;2023-12-20T13:07:13;8.10;99.90
3923;DHT22;1976;51.694;6.256;2023-12-20T13:09:39;8.10;99.90
3923;DHT22;1976;51.694;6.256;2023-12-20T13:12:06;8.10;99.90
3923;DHT22;1976;51.694;6.256;2023-12-20T13:14:33;8.10;99.90
3923;DHT22;1976;51.694;6.256;2023-12-20T13:17:00;8.10;99.90
3923;DHT22;1976;51.694;6.256;2023-12-20T13:19:26;8.20;99.90
3923;DHT22;1976;51.694;6.256;2023-12-20T13:21:51;8.10;99.90
3923;DHT22;1976;51.694;6.256;2023-12-20T13:24:17;8.00;99.90
3923;DHT22;1976;51.694;6.256;2023-12-20T13:26:44;7.90;99.90
3923;DHT22;1976;51.694;6.256;2023-12-20T13:29:09;8.00;99.90
3923;DHT22;1976;51.694;6.256;2023-12-20T13:31:35;8.00;99.90
3923;DHT22;1976;51.694;6.256;2023-12-20T13:34:02;7.90;99.90
3923;DHT22;1976;51.694;6.256;2023-12-20T13:36:27;7.90;99.90
3923;DHT22;1976;51.694;6.256;2023-12-20T13:38:53;7.90;99.90
3923;DHT22;1976;51.694;6.256;2023-12-20T13:41:19;7.90;99.90
3923;DHT22;1976;51.694;6.256;2023-12-20T13:43:45;7.90;99.90
3923;DHT22;1976;51.694;6.256;2023-12-20T13:46:11;7.80;99.90
3923;DHT22;1976;51.694;6.256;2023-12-20T13:48:37;7.80;99.90
3923;DHT22;1976;51.694;6.256;2023-12-20T13:53:29;7.80;99.90
3923;DHT22;1976;51.694;6.256;2023-12-20T13:55:55;7.80;99.90
3923;DHT22;1976;51.694;6.256;2023-12-20T13:58:20;7.80;99.90
3923;DHT22;1976;51.694;6.256;2023-12-20T14:00:46;7.80;99.90
3923;DHT22;1976;51.694;6.256;2023-12-20T14:03:12;7.80;99.90
3923;DHT22;1976;51.694;6.256;2023-12-20T14:05:37;7.70;99.90
3923;DHT22;1976;51.694;6.256;2023-12-20T14:08:03;7.70;99.90
3923;DHT22;1976;51.694;6.256;2023-12-20T14:10:29;7.70;99.90
3923;DHT22;1976;51.694;6.256;2023-12-20T14:15:21;7.70;99.90
3923;DHT22;1976;51.694;6.256;2023-12-20T14:17:50;7.70;99.90
3923;DHT22;1976;51.694;6.256;2023-12-20T14:20:16;7.70;99.90
3923;DHT22;1976;51.694;6.256;2023-12-20T14:22:42;7.60;99.90
3923;DHT22;1976;51.694;6.256;2023-12-20T14:25:12;7.70;99.90
3923;DHT22;1976;51.694;6.256;2023-12-20T14:27:38;7.80;99.90
3923;DHT22;1976;51.694;6.256;2023-12-20T14:30:05;7.80;99.90
3923;DHT22;1976;51.694;6.256;2023-12-20T14:32:31;7.80;99.90
3923;DHT22;1976;51.694;6.256;2023-12-20T14:34:57;7.90;99.90
3923;DHT22;1976;51.694;6.256;2023-12-20T14:37:23;7.90;99.90
3923;DHT22;1976;51.694;6.256;2023-12-20T14:39:49;7.90;99.90
3923;DHT22;1976;51.694;6.256;2023-12-20T14:42:14;8.00;99.90
3923;DHT22;1976;51.694;6.256;2023-12-20T14:44:40;7.90;99.90
3923;DHT22;1976;51.694;6.256;2023-12-20T14:47:06;8.00;99.90
3923;DHT22;1976;51.694;6.256;2023-12-20T14:49:32;8.00;99.90
3923;DHT22;1976;51.694;6.256;2023-12-20T14:51:58;8.00;99.90
3923;DHT22;1976;51.694;6.256;2023-12-20T14:54:25;8.00;99.90
3923;DHT22;1976;51.694;6.256;2023-12-20T14:56:50;8.00;99.90
3923;DHT22;1976;51.694;6.256;2023-12-20T14:59:16;8.10;99.90
3923;DHT22;1976;51.694;6.256;2023-12-20T15:01:43;8.10;99.90
3923;DHT22;1976;51.694;6.256;2023-12-20T15:04:09;8.10;99.90
3923;DHT22;1976;51.694;6.256;2023-12-20T15:06:36;8.10;99.90
3923;DHT22;1976;51.694;6.256;2023-12-20T15:09:02;8.10;99.90
3923;DHT22;1976;51.694;6.256;2023-12-20T15:11:34;8.10;99.90
3923;DHT22;1976;51.694;6.256;2023-12-20T15:14:00;8.10;99.90
3923;DHT22;1976;51.694;6.256;2023-12-20T15:16:26;8.00;99.90
3923;DHT22;1976;51.694;6.256;2023-12-20T15:18:53;8.00;99.90
3923;DHT22;1976;51.694;6.256;2023-12-20T15:21:22;8.00;99.90
3923;DHT22;1976;51.694;6.256;2023-12-20T15:23:56;8.00;99.90
3923;DHT22;1976;51.694;6.256;2023-12-20T15:26:32;8.10;99.90
3923;DHT22;1976;51.694;6.256;2023-12-20T15:28:58;8.10;99.90
3923;DHT22;1976;51.694;6.256;2023-12-20T15:31:24;8.10;99.90
3923;DHT22;1976;51.694;6.256;2023-12-20T15:33:52;8.10;99.90
3923;DHT22;1976;51.694;6.256;2023-12-20T15:36:18;8.10;99.90
3923;DHT22;1976;51.694;6.256;2023-12-20T15:38:44;8.10;99.90
3923;DHT22;1976;51.694;6.256;2023-12-20T15:41:17;8.00;99.90
3923;DHT22;1976;51.694;6.256;2023-12-20T15:43:43;8.10;99.90
3923;DHT22;1976;51.694;6.256;2023-12-20T15:46:09;8.00;99.90
3923;DHT22;1976;51.694;6.256;2023-12-20T15:48:35;8.10;99.90
3923;DHT22;1976;51.694;6.256;2023-12-20T15:51:05;8.10;99.90
3923;DHT22;1976;51.694;6.256;2023-12-20T15:53:31;8.10;99.90
3923;DHT22;1976;51.694;6.256;2023-12-20T15:55:57;8.10;99.90
3923;DHT22;1976;51.694;6.256;2023-12-20T15:58:23;8.10;99.90
3923;DHT22;1976;51.694;6.256;2023-12-20T16:00:49;8.00;99.90
3923;DHT22;1976;51.694;6.256;2023-12-20T16:03:14;8.00;99.90
3923;DHT22;1976;51.694;6.256;2023-12-20T16:05:40;8.10;99.90
3923;DHT22;1976;51.694;6.256;2023-12-20T16:08:07;8.00;99.90
3923;DHT22;1976;51.694;6.256;2023-12-20T16:10:32;8.00;99.90
3923;DHT22;1976;51.694;6.256;2023-12-20T16:12:58;8.10;99.90
3923;DHT22;1976;51.694;6.256;2023-12-20T16:17:50;7.90;99.90
3923;DHT22;1976;51.694;6.256;2023-12-20T16:20:16;7.80;99.90
3923;DHT22;1976;51.694;6.256;2023-12-20T16:22:41;7.90;99.90
3923;DHT22;1976;51.694;6.256;2023-12-20T16:25:07;7.90;99.90
3923;DHT22;1976;51.694;6.256;2023-12-20T16:27:34;7.80;99.90
3923;DHT22;1976;51.694;6.256;2023-12-20T16:30:00;7.80;99.90
3923;DHT22;1976;51.694;6.256;2023-12-20T16:32:25;7.90;99.90
3923;DHT22;1976;51.694;6.256;2023-12-20T16:34:51;7.90;99.90
3923;DHT22;1976;51.694;6.256;2023-12-20T16:37:18;7.90;99.90
3923;DHT22;1976;51.694;6.256;2023-12-20T16:39:44;7.80;99.90
3923;DHT22;1976;51.694;6.256;2023-12-20T16:42:09;7.70;99.90